createdAt,value
2023-03-12T00:01:46.009Z,1.80
2023-03-12T00:04:16.243Z,1.60
2023-03-12T00:06:46.198Z,2.00
2023-03-12T00:09:16.671Z,2.00
2023-03-12T00:11:47.106Z,1.60
2023-03-12T00:14:20.152Z,2.30
2023-03-12T00:16:52.019Z,1.50
2023-03-12T00:19:22.693Z,1.00
2023-03-12T00:21:52.249Z,1.40
2023-03-12T00:24:20.486Z,1.40
2023-03-12T00:26:48.417Z,1.00
2023-03-12T00:29:18.318Z,1.20
2023-03-12T00:31:49.439Z,1.00
2023-03-12T00:34:21.028Z,1.30
2023-03-12T00:36:48.913Z,1.90
2023-03-12T00:39:26.203Z,1.60
2023-03-12T00:41:54.114Z,1.70
2023-03-12T00:44:24.314Z,1.70
2023-03-12T00:46:56.279Z,0.90
2023-03-12T00:49:24.589Z,1.90
2023-03-12T00:51:52.823Z,2.10
2023-03-12T00:54:21.275Z,1.60
2023-03-12T00:56:51.431Z,1.70
2023-03-12T00:59:22.850Z,1.60
2023-03-12T01:01:50.640Z,1.70
2023-03-12T01:04:26.020Z,1.80
2023-03-12T01:06:56.745Z,1.20
2023-03-12T01:09:24.621Z,0.90
2023-03-12T01:11:52.414Z,1.40
2023-03-12T01:14:21.068Z,1.50
2023-03-12T01:16:52.333Z,0.60
2023-03-12T01:19:22.933Z,0.80
2023-03-12T01:21:51.705Z,0.90
2023-03-12T01:24:20.377Z,0.90
2023-03-12T01:26:48.163Z,1.00
2023-03-12T01:29:19.412Z,0.60
2023-03-12T01:31:49.540Z,1.10
2023-03-12T01:34:19.489Z,0.90
2023-03-12T01:36:48.265Z,0.70
2023-03-12T01:39:16.197Z,0.80
2023-03-12T01:41:44.220Z,0.70
2023-03-12T01:44:16.022Z,0.70
2023-03-12T01:46:46.231Z,0.70
2023-03-12T01:49:28.120Z,0.60
2023-03-12T01:52:07.565Z,0.60
2023-03-12T01:54:48.253Z,0.60
2023-03-12T01:57:23.836Z,0.60
2023-03-12T02:00:04.502Z,0.90
2023-03-12T02:02:33.932Z,0.90
2023-03-12T02:05:20.288Z,0.50
2023-03-12T02:07:49.852Z,0.60
2023-03-12T02:10:19.546Z,0.70
2023-03-12T02:12:49.749Z,0.80
2023-03-12T02:15:18.288Z,0.70
2023-03-12T02:17:48.806Z,0.80
2023-03-12T02:20:52.356Z,0.90
2023-03-12T02:23:48.162Z,0.80
2023-03-12T02:26:20.212Z,0.70
2023-03-12T02:28:51.912Z,0.60
2023-03-12T02:31:25.350Z,0.90
2023-03-12T02:33:57.457Z,1.20
2023-03-12T02:36:25.722Z,1.10
2023-03-12T02:38:56.106Z,2.00
2023-03-12T02:41:38.263Z,0.80
2023-03-12T02:44:11.425Z,1.00
2023-03-12T02:46:45.515Z,1.10
2023-03-12T02:49:15.977Z,0.70
2023-03-12T02:51:45.449Z,0.70
2023-03-12T02:54:16.991Z,0.70
2023-03-12T02:56:46.576Z,0.70
2023-03-12T02:59:18.703Z,0.70
2023-03-12T03:01:47.534Z,0.80
2023-03-12T03:04:15.875Z,0.80
2023-03-12T03:06:44.608Z,0.90
2023-03-12T03:09:14.765Z,0.70
2023-03-12T03:11:44.425Z,1.00
2023-03-12T03:14:12.459Z,0.70
2023-03-12T03:16:40.954Z,0.60
2023-03-12T03:19:10.415Z,0.80
2023-03-12T03:21:40.031Z,0.60
2023-03-12T03:24:08.922Z,0.60
2023-03-12T03:26:38.084Z,0.60
2023-03-12T03:29:06.880Z,0.60
2023-03-12T03:31:35.156Z,0.70
2023-03-12T03:34:06.583Z,0.90
2023-03-12T03:36:34.416Z,0.70
2023-03-12T03:39:05.059Z,0.60
2023-03-12T03:41:37.750Z,0.60
2023-03-12T03:44:07.714Z,0.70
2023-03-12T03:46:37.677Z,0.80
2023-03-12T03:49:07.990Z,0.70
2023-03-12T03:51:36.633Z,0.40
2023-03-12T03:54:04.887Z,0.50
2023-03-12T03:56:32.714Z,0.90
2023-03-12T03:59:04.150Z,0.60
2023-03-12T04:01:33.210Z,0.50
2023-03-12T04:04:04.421Z,0.70
2023-03-12T04:06:32.750Z,0.60
2023-03-12T04:09:04.691Z,0.50
2023-03-12T04:11:33.461Z,0.40
2023-03-12T04:14:01.214Z,0.70
2023-03-12T04:16:29.229Z,0.50
2023-03-12T04:19:01.083Z,0.50
2023-03-12T04:21:28.888Z,0.80
2023-03-12T04:24:01.872Z,0.70
2023-03-12T04:26:30.121Z,0.70
2023-03-12T04:28:58.105Z,0.50
2023-03-12T04:31:32.227Z,0.60
2023-03-12T04:34:01.734Z,0.50
2023-03-12T04:36:30.839Z,0.60
2023-03-12T04:38:59.545Z,0.70
2023-03-12T04:41:29.940Z,0.70
2023-03-12T04:43:59.047Z,0.80
2023-03-12T04:46:27.150Z,0.80
2023-03-12T04:48:57.585Z,1.20
2023-03-12T04:51:28.053Z,1.40
2023-03-12T04:54:01.521Z,0.80
2023-03-12T04:56:29.548Z,0.50
2023-03-12T04:58:57.402Z,0.60
2023-03-12T05:01:32.562Z,0.70
2023-03-12T05:04:01.076Z,0.40
2023-03-12T05:06:29.372Z,0.60
2023-03-12T05:08:57.644Z,0.70
2023-03-12T05:11:25.776Z,0.50
2023-03-12T05:13:54.280Z,0.60
2023-03-12T05:16:24.466Z,0.50
2023-03-12T05:18:52.576Z,0.70
2023-03-12T05:21:22.038Z,0.60
2023-03-12T05:23:54.198Z,0.80
2023-03-12T05:26:32.920Z,0.60
2023-03-12T05:29:02.662Z,0.70
2023-03-12T05:31:35.185Z,0.80
2023-03-12T05:34:05.088Z,0.80
2023-03-12T05:36:33.235Z,0.90
2023-03-12T05:39:01.001Z,0.80
2023-03-12T05:41:31.591Z,0.60
2023-03-12T05:44:01.182Z,0.60
2023-03-12T05:46:29.742Z,0.90
2023-03-12T05:48:57.665Z,0.80
2023-03-12T05:51:26.976Z,1.20
2023-03-12T05:53:55.183Z,0.70
2023-03-12T05:56:26.014Z,0.70
2023-03-12T05:58:57.770Z,0.60
2023-03-12T06:01:29.218Z,0.60
2023-03-12T06:04:01.151Z,0.70
2023-03-12T06:06:33.877Z,0.90
2023-03-12T06:09:04.037Z,0.70
2023-03-12T06:11:36.265Z,0.50
2023-03-12T06:14:04.844Z,0.80
2023-03-12T06:16:33.058Z,0.70
2023-03-12T06:19:04.096Z,0.80
2023-03-12T06:21:38.431Z,0.70
2023-03-12T06:24:08.113Z,0.70
2023-03-12T06:26:39.079Z,1.30
2023-03-12T06:29:07.445Z,1.10
2023-03-12T06:31:38.693Z,1.00
2023-03-12T06:34:10.400Z,0.90
2023-03-12T06:36:38.308Z,1.20
2023-03-12T06:39:06.644Z,1.20
2023-03-12T06:41:34.428Z,1.10
2023-03-12T06:44:05.985Z,1.00
2023-03-12T06:46:35.309Z,1.20
2023-03-12T06:49:06.116Z,1.00
2023-03-12T06:51:34.165Z,1.00
2023-03-12T06:54:04.287Z,0.80
2023-03-12T06:56:33.602Z,1.20
2023-03-12T06:59:01.582Z,1.00
2023-03-12T07:01:29.753Z,1.10
2023-03-12T07:03:57.825Z,1.80
2023-03-12T07:06:26.107Z,1.10
2023-03-12T07:08:54.774Z,0.90
2023-03-12T07:11:23.534Z,1.10
2023-03-12T07:13:52.870Z,0.90
2023-03-12T07:16:20.661Z,1.00
2023-03-12T07:18:50.268Z,1.20
2023-03-12T07:21:24.017Z,0.90
2023-03-12T07:23:54.223Z,0.90
2023-03-12T07:26:22.145Z,1.20
2023-03-12T07:28:50.960Z,1.30
2023-03-12T07:31:18.809Z,1.40
2023-03-12T07:33:47.203Z,1.00
2023-03-12T07:36:18.155Z,1.60
2023-03-12T07:38:46.383Z,3.10
2023-03-12T07:41:22.398Z,1.90
2023-03-12T07:43:51.624Z,8.00
2023-03-12T07:46:21.966Z,6.00
2023-03-12T07:48:51.353Z,6.50
2023-03-12T07:51:21.622Z,2.50
2023-03-12T07:53:56.987Z,2.10
2023-03-12T07:56:26.128Z,2.00
2023-03-12T07:58:56.902Z,1.60
2023-03-12T08:01:32.322Z,1.10
2023-03-12T08:04:02.120Z,1.00
2023-03-12T08:06:31.655Z,2.90
2023-03-12T08:09:01.208Z,1.40
2023-03-12T08:11:30.378Z,1.20
2023-03-12T08:13:58.064Z,1.60
2023-03-12T08:16:26.000Z,1.80
2023-03-12T08:18:53.837Z,1.90
2023-03-12T08:21:26.545Z,1.50
2023-03-12T08:23:55.908Z,1.40
2023-03-12T08:26:24.030Z,1.20
2023-03-12T08:28:52.329Z,1.40
2023-03-12T08:31:20.671Z,2.10
2023-03-12T08:33:50.364Z,1.50
2023-03-12T08:36:22.228Z,1.00
2023-03-12T08:38:50.813Z,1.00
2023-03-12T08:41:21.858Z,1.20
2023-03-12T08:43:53.760Z,1.20
2023-03-12T08:46:22.911Z,1.00
2023-03-12T08:48:53.414Z,1.10
2023-03-12T08:51:23.602Z,0.90
2023-03-12T08:53:52.036Z,2.00
2023-03-12T08:56:23.119Z,1.90
2023-03-12T08:58:51.733Z,1.80
2023-03-12T09:01:20.872Z,1.70
2023-03-12T09:03:51.087Z,1.80
2023-03-12T09:06:19.923Z,1.00
2023-03-12T09:08:49.078Z,1.10
2023-03-12T09:11:18.082Z,1.30
2023-03-12T09:14:14.985Z,1.40
2023-03-12T09:16:33.860Z,0.90
2023-03-12T09:19:03.164Z,0.90
2023-03-12T09:21:31.559Z,1.10
2023-03-12T09:24:00.323Z,1.40
2023-03-12T09:26:28.646Z,0.80
2023-03-12T09:28:58.021Z,1.10
2023-03-12T09:31:26.971Z,1.10
2023-03-12T09:33:54.792Z,1.10
2023-03-12T09:36:24.609Z,1.80
2023-03-12T09:38:52.494Z,2.00
2023-03-12T09:41:25.784Z,2.10
2023-03-12T09:46:38.737Z,2.10
2023-03-12T09:49:38.723Z,2.00
2023-03-12T09:52:36.350Z,1.50
2023-03-12T09:55:15.763Z,2.20
2023-03-12T09:57:46.436Z,1.60
2023-03-12T10:00:22.736Z,1.90
2023-03-12T10:03:23.969Z,2.20
2023-03-12T10:06:16.195Z,2.50
2023-03-12T10:08:53.623Z,2.20
2023-03-12T10:11:55.651Z,1.30
2023-03-12T10:15:08.926Z,2.00
2023-03-12T10:17:58.566Z,2.40
2023-03-12T10:20:57.392Z,1.80
2023-03-12T10:23:46.302Z,2.70
2023-03-12T10:26:28.895Z,2.10
2023-03-12T10:29:16.160Z,2.20
2023-03-12T10:31:52.595Z,2.30
2023-03-12T10:34:32.856Z,2.30
2023-03-12T10:37:16.657Z,2.60
2023-03-12T10:39:47.025Z,2.10
2023-03-12T10:42:19.713Z,3.30
2023-03-12T10:45:01.537Z,2.10
2023-03-12T10:47:44.792Z,1.50
2023-03-12T10:50:23.046Z,2.30
2023-03-12T10:53:23.855Z,1.60
2023-03-12T10:56:19.883Z,1.50
2023-03-12T10:58:54.154Z,1.30
2023-03-12T11:01:38.174Z,1.90
2023-03-12T11:04:22.297Z,1.80
2023-03-12T11:09:47.060Z,1.20
2023-03-12T11:12:31.871Z,1.40
2023-03-12T11:15:00.673Z,1.30
2023-03-12T11:17:30.014Z,1.30
2023-03-12T11:19:58.365Z,2.20
2023-03-12T11:22:35.932Z,1.50
2023-03-12T11:25:07.655Z,1.90
2023-03-12T11:27:53.076Z,2.20
2023-03-12T11:30:36.769Z,2.20
2023-03-12T11:33:05.313Z,1.60
2023-03-12T11:36:30.318Z,2.60
2023-03-12T11:39:27.251Z,2.30
2023-03-12T11:42:08.185Z,1.80
2023-03-12T11:44:56.865Z,1.90
2023-03-12T11:47:47.917Z,2.00
2023-03-12T11:50:41.550Z,1.70
2023-03-12T11:53:32.061Z,2.30
2023-03-12T11:56:34.704Z,2.10
2023-03-12T11:59:31.551Z,1.60
2023-03-12T12:02:44.748Z,1.80
2023-03-12T12:06:10.978Z,2.10
2023-03-12T12:09:29.623Z,2.00
2023-03-12T12:12:39.098Z,3.10
2023-03-12T12:15:29.498Z,1.30
2023-03-12T12:18:45.990Z,1.90
2023-03-12T12:21:32.657Z,2.50
2023-03-12T12:24:20.632Z,1.70
2023-03-12T12:27:47.586Z,1.30
2023-03-12T12:30:33.600Z,1.20
2023-03-12T12:33:38.278Z,1.40
2023-03-12T12:36:12.096Z,1.40
2023-03-12T12:38:49.532Z,1.20
2023-03-12T12:41:32.811Z,0.90
2023-03-12T12:44:15.265Z,1.00
2023-03-12T12:46:51.766Z,1.70
2023-03-12T12:49:29.759Z,1.80
2023-03-12T12:52:04.984Z,1.60
2023-03-12T12:55:03.808Z,3.20
2023-03-12T12:58:13.024Z,1.90
2023-03-12T13:00:53.432Z,2.10
2023-03-12T13:03:26.495Z,1.40
2023-03-12T13:06:05.152Z,1.40
2023-03-12T13:08:39.613Z,1.40
2023-03-12T13:11:19.996Z,1.40
2023-03-12T13:14:15.880Z,1.90
2023-03-12T13:16:47.150Z,1.00
2023-03-12T13:19:14.976Z,1.50
2023-03-12T13:22:29.475Z,1.70
2023-03-12T13:25:35.907Z,1.50
2023-03-12T13:28:26.833Z,1.20
2023-03-12T13:30:55.043Z,2.40
2023-03-12T13:33:48.710Z,1.90
2023-03-12T13:36:26.882Z,1.30
2023-03-12T13:39:17.746Z,3.30
2023-03-12T13:41:45.426Z,7.60
2023-03-12T13:44:40.886Z,8.10
2023-03-12T13:47:32.292Z,2.30
2023-03-12T13:50:08.472Z,2.60
2023-03-12T13:53:06.762Z,1.40
2023-03-12T13:55:39.651Z,1.70
2023-03-12T13:58:23.765Z,2.00
2023-03-12T14:01:14.455Z,1.40
2023-03-12T14:03:52.444Z,1.20
2023-03-12T14:06:26.005Z,2.00
2023-03-12T14:09:30.889Z,3.00
2023-03-12T14:12:49.746Z,2.60
2023-03-12T14:15:26.297Z,2.00
2023-03-12T14:18:04.729Z,2.80
2023-03-12T14:20:39.245Z,2.20
2023-03-12T14:23:15.653Z,1.80
2023-03-12T14:25:48.503Z,1.30
2023-03-12T14:28:23.661Z,1.50
2023-03-12T14:31:16.637Z,1.30
2023-03-12T14:34:20.601Z,1.60
2023-03-12T14:37:25.063Z,1.40
2023-03-12T14:40:04.634Z,1.10
2023-03-12T14:42:36.357Z,1.00
2023-03-12T14:45:15.552Z,0.90
2023-03-12T14:47:48.099Z,1.00
2023-03-12T14:50:30.993Z,1.70
2023-03-12T14:53:27.399Z,2.20
2023-03-12T14:56:30.998Z,2.20
2023-03-12T14:59:02.577Z,2.50
2023-03-12T15:01:39.736Z,2.30
2023-03-12T15:04:22.421Z,2.00
2023-03-12T15:06:55.922Z,2.00
2023-03-12T15:09:29.678Z,1.70
2023-03-12T15:12:04.266Z,2.20
2023-03-12T15:14:42.092Z,2.00
2023-03-12T15:17:21.220Z,2.00
2023-03-12T15:19:51.007Z,1.80
2023-03-12T15:22:26.963Z,1.70
2023-03-12T15:25:26.436Z,2.10
2023-03-12T15:28:22.833Z,1.80
2023-03-12T15:31:16.200Z,1.90
2023-03-12T15:33:46.783Z,2.20
2023-03-12T15:36:26.196Z,2.80
2023-03-12T15:39:11.593Z,1.70
2023-03-12T15:41:53.541Z,1.90
2023-03-12T15:44:24.958Z,2.20
2023-03-12T15:47:13.701Z,1.90
2023-03-12T15:49:43.690Z,1.80
2023-03-12T15:52:26.857Z,1.70
2023-03-12T15:55:07.721Z,1.70
2023-03-12T15:58:00.462Z,1.80
2023-03-12T16:00:45.467Z,2.10
2023-03-12T16:03:20.850Z,2.40
2023-03-12T16:05:51.073Z,2.30
2023-03-12T16:08:40.172Z,2.80
2023-03-12T16:11:26.414Z,3.40
2023-03-12T16:14:15.160Z,3.70
2023-03-12T16:16:47.031Z,3.60
2023-03-12T16:19:21.447Z,2.30
2023-03-12T16:21:54.843Z,1.80
2023-03-12T16:24:26.776Z,1.80
2023-03-12T16:27:00.113Z,2.00
2023-03-12T16:29:39.112Z,2.10
2023-03-12T16:32:19.241Z,1.30
2023-03-12T16:34:48.349Z,1.90
2023-03-12T16:37:16.202Z,1.70
2023-03-12T16:39:46.603Z,1.90
2023-03-12T16:42:21.282Z,1.80
2023-03-12T16:44:49.337Z,2.00
2023-03-12T16:47:18.647Z,2.00
2023-03-12T16:49:46.549Z,2.30
2023-03-12T16:52:21.256Z,2.40
2023-03-12T16:54:50.538Z,3.10
2023-03-12T16:58:01.081Z,2.60
2023-03-12T17:00:33.633Z,3.80
2023-03-12T17:03:01.988Z,3.70
2023-03-12T17:05:30.658Z,3.70
2023-03-12T17:07:59.498Z,4.50
2023-03-12T17:10:27.238Z,4.30
2023-03-12T17:12:56.873Z,4.90
2023-03-12T17:15:33.363Z,4.70
2023-03-12T17:18:03.598Z,5.20
2023-03-12T17:20:36.272Z,5.60
2023-03-12T17:23:06.980Z,5.50
2023-03-12T17:25:40.431Z,5.80
2023-03-12T17:28:09.023Z,6.20
2023-03-12T17:30:38.487Z,6.20
2023-03-12T17:33:15.549Z,5.40
2023-03-12T17:35:44.659Z,5.90
2023-03-12T17:38:13.235Z,5.40
2023-03-12T17:40:43.725Z,4.50
2023-03-12T17:43:11.919Z,4.70
2023-03-12T17:45:43.103Z,6.00
2023-03-12T17:48:12.109Z,5.90
2023-03-12T17:50:41.840Z,3.60
2023-03-12T17:53:10.890Z,4.00
2023-03-12T17:55:40.842Z,3.60
2023-03-12T17:58:08.704Z,3.70
2023-03-12T18:00:36.528Z,3.60
2023-03-12T18:03:08.051Z,3.60
2023-03-12T18:05:43.272Z,3.20
2023-03-12T18:08:11.528Z,3.60
2023-03-12T18:10:40.596Z,3.10
2023-03-12T18:13:08.623Z,5.10
2023-03-12T18:15:36.440Z,7.70
2023-03-12T18:18:06.338Z,9.90
2023-03-12T18:20:39.825Z,8.20
2023-03-12T18:23:09.061Z,7.10
2023-03-12T18:25:41.144Z,8.20
2023-03-12T18:28:09.515Z,7.60
2023-03-12T18:30:41.380Z,6.20
2023-03-12T18:33:09.203Z,6.70
2023-03-12T18:35:38.495Z,7.20
2023-03-12T18:38:06.399Z,7.00
2023-03-12T18:40:37.726Z,7.40
2023-03-12T18:43:10.980Z,7.80
2023-03-12T18:45:44.463Z,6.10
2023-03-12T18:48:17.397Z,3.80
2023-03-12T18:50:50.962Z,4.50
2023-03-12T18:53:20.818Z,5.10
2023-03-12T18:56:00.316Z,5.40
2023-03-12T18:58:29.428Z,7.70
2023-03-12T19:01:00.100Z,6.50
2023-03-12T19:03:29.893Z,7.00
2023-03-12T19:06:15.433Z,6.60
2023-03-12T19:08:44.349Z,6.00
2023-03-12T19:11:17.849Z,10.80
2023-03-12T19:13:49.318Z,8.70
2023-03-12T19:16:25.558Z,7.20
2023-03-12T19:18:55.757Z,5.40
2023-03-12T19:21:28.754Z,3.40
2023-03-12T19:23:58.157Z,3.40
2023-03-12T19:26:26.196Z,2.50
2023-03-12T19:28:57.004Z,2.40
2023-03-12T19:31:29.889Z,1.20
2023-03-12T19:33:58.588Z,0.90
2023-03-12T19:36:26.336Z,2.70
2023-03-12T19:38:57.159Z,3.80
2023-03-12T19:41:29.598Z,3.30
2023-03-12T19:44:03.539Z,2.40
2023-03-12T19:46:34.087Z,1.50
2023-03-12T19:49:02.561Z,2.80
2023-03-12T19:51:32.299Z,1.70
2023-03-12T19:54:01.367Z,1.50
2023-03-12T19:56:31.524Z,2.10
2023-03-12T19:59:00.671Z,2.00
2023-03-12T20:01:29.713Z,1.60
2023-03-12T20:04:00.337Z,1.50
2023-03-12T20:06:33.904Z,1.70
2023-03-12T20:09:02.301Z,1.70
2023-03-12T20:11:35.710Z,1.60
2023-03-12T20:14:05.588Z,1.90
2023-03-12T20:16:41.750Z,1.70
2023-03-12T20:19:10.288Z,1.70
2023-03-12T20:21:38.115Z,1.40
2023-03-12T20:24:06.496Z,1.70
2023-03-12T20:26:35.350Z,1.80
2023-03-12T20:29:07.250Z,2.00
2023-03-12T20:31:35.403Z,1.90
2023-03-12T20:34:03.398Z,1.50
2023-03-12T20:36:33.952Z,1.10
2023-03-12T20:39:01.827Z,1.20
2023-03-12T20:41:31.729Z,1.10
2023-03-12T20:44:01.051Z,1.40
2023-03-12T20:46:29.044Z,0.80
2023-03-12T20:48:57.199Z,1.00
2023-03-12T20:51:26.404Z,1.00
2023-03-12T20:53:54.322Z,1.20
2023-03-12T20:56:22.187Z,1.10
2023-03-12T20:58:56.501Z,1.20
2023-03-12T21:01:24.934Z,1.70
2023-03-12T21:03:58.756Z,1.80
2023-03-12T21:06:29.019Z,1.50
2023-03-12T21:08:59.421Z,2.40
2023-03-12T21:11:27.260Z,1.70
2023-03-12T21:13:57.426Z,1.30
2023-03-12T21:16:25.672Z,1.70
2023-03-12T21:18:58.592Z,1.60
2023-03-12T21:21:29.789Z,1.20
2023-03-12T21:24:01.320Z,1.00
2023-03-12T21:26:29.636Z,1.10
2023-03-12T21:28:59.709Z,1.30
2023-03-12T21:31:31.125Z,1.10
2023-03-12T21:33:59.093Z,1.10
2023-03-12T21:36:30.494Z,1.20
2023-03-12T21:39:01.818Z,1.20
2023-03-12T21:41:30.866Z,1.70
2023-03-12T21:44:02.719Z,1.40
2023-03-12T21:46:30.924Z,1.50
2023-03-12T21:49:00.705Z,1.30
2023-03-12T21:51:28.818Z,1.00
2023-03-12T21:53:58.941Z,1.30
2023-03-12T21:56:28.366Z,1.50
2023-03-12T21:58:58.001Z,1.30
2023-03-12T22:01:26.052Z,1.30
2023-03-12T22:03:54.430Z,1.90
2023-03-12T22:06:23.165Z,2.00
2023-03-12T22:08:53.497Z,1.40
2023-03-12T22:11:22.615Z,2.00
2023-03-12T22:13:52.044Z,1.50
2023-03-12T22:16:20.780Z,1.80
2023-03-12T22:18:48.512Z,1.30
2023-03-12T22:21:20.601Z,1.50
2023-03-12T22:23:52.824Z,1.50
2023-03-12T22:26:27.262Z,1.50
2023-03-12T22:31:30.254Z,1.40
2023-03-12T22:33:58.153Z,1.70
2023-03-12T22:36:28.043Z,1.00
2023-03-12T22:38:58.999Z,1.00
2023-03-12T22:41:30.019Z,1.20
2023-03-12T22:44:05.421Z,1.00
2023-03-12T22:46:33.990Z,1.70
2023-03-12T22:49:05.469Z,1.60
2023-03-12T22:51:34.400Z,1.50
2023-03-12T22:54:02.376Z,1.30
2023-03-12T22:56:31.523Z,1.30
2023-03-12T22:58:59.419Z,1.20
2023-03-12T23:01:28.934Z,1.10
2023-03-12T23:03:57.985Z,0.90
2023-03-12T23:06:30.063Z,1.40
2023-03-12T23:08:59.678Z,0.80
2023-03-12T23:11:29.817Z,0.80
2023-03-12T23:13:58.703Z,1.00
2023-03-12T23:16:28.073Z,1.20
2023-03-12T23:18:56.696Z,1.00
2023-03-12T23:21:25.270Z,1.30
2023-03-12T23:23:54.433Z,1.00
2023-03-12T23:26:28.001Z,1.20
2023-03-12T23:28:58.967Z,1.40
2023-03-12T23:31:29.663Z,1.10
2023-03-12T23:33:58.718Z,1.20
2023-03-12T23:36:31.404Z,1.10
2023-03-12T23:38:59.078Z,1.20
2023-03-12T23:41:32.486Z,0.90
2023-03-12T23:44:00.910Z,1.10
2023-03-12T23:46:30.378Z,1.10
2023-03-12T23:48:58.464Z,1.00
2023-03-12T23:51:32.940Z,0.80
2023-03-12T23:54:05.454Z,0.70
2023-03-12T23:56:41.654Z,0.70
2023-03-12T23:59:11.186Z,0.50
